createdAt,value
2022-09-21T00:00:12.920Z,9.73
2022-09-21T00:02:20.984Z,11.93
2022-09-21T00:04:25.318Z,11.00
2022-09-21T00:06:31.545Z,9.88
2022-09-21T00:08:39.990Z,11.18
2022-09-21T00:10:44.919Z,9.35
2022-09-21T00:12:49.659Z,10.35
2022-09-21T00:14:59.700Z,11.82
2022-09-21T00:17:04.358Z,11.15
2022-09-21T00:19:10.722Z,11.95
2022-09-21T00:21:17.911Z,12.27
2022-09-21T00:23:24.307Z,10.25
2022-09-21T00:25:29.096Z,10.85
2022-09-21T00:27:37.693Z,8.95
2022-09-21T00:29:42.042Z,12.40
2022-09-21T00:31:46.585Z,12.38
2022-09-21T00:33:57.661Z,49.75
2022-09-21T00:36:06.562Z,22.70
2022-09-21T00:38:12.422Z,16.30
2022-09-21T00:40:21.062Z,14.23
2022-09-21T00:42:29.220Z,11.18
2022-09-21T00:44:34.555Z,13.68
2022-09-21T00:46:43.058Z,9.30
2022-09-21T00:48:48.052Z,9.35
2022-09-21T00:50:54.932Z,9.85
2022-09-21T00:53:02.835Z,9.70
2022-09-21T00:55:24.049Z,9.35
2022-09-21T00:57:31.337Z,6.90
2022-09-21T00:59:38.512Z,8.65
2022-09-21T01:01:45.646Z,8.38
2022-09-21T01:03:50.746Z,8.48
2022-09-21T01:05:58.845Z,9.00
2022-09-21T01:08:09.211Z,6.88
2022-09-21T01:10:17.839Z,7.20
2022-09-21T01:12:56.681Z,6.53
2022-09-21T01:15:13.849Z,6.40
2022-09-21T01:17:18.144Z,10.02
2022-09-21T01:19:40.085Z,6.32
2022-09-21T01:21:54.979Z,10.48
2022-09-21T01:24:18.876Z,11.30
2022-09-21T01:26:35.315Z,11.63
2022-09-21T01:28:59.231Z,14.95
2022-09-21T01:31:08.420Z,8.98
2022-09-21T01:33:29.106Z,15.57
2022-09-21T01:35:51.166Z,10.23
2022-09-21T01:38:15.085Z,11.93
2022-09-21T01:40:34.549Z,10.85
2022-09-21T01:42:41.338Z,10.18
2022-09-21T01:44:46.498Z,10.10
2022-09-21T01:46:53.931Z,9.82
2022-09-21T01:49:01.593Z,9.55
2022-09-21T01:51:08.412Z,9.85
2022-09-21T01:53:39.561Z,10.68
2022-09-21T01:55:51.246Z,12.45
2022-09-21T01:58:23.777Z,9.23
2022-09-21T02:00:34.277Z,7.10
2022-09-21T02:02:54.735Z,11.18
2022-09-21T02:05:07.851Z,11.45
2022-09-21T02:07:18.988Z,9.63
2022-09-21T02:09:24.000Z,8.32
2022-09-21T02:11:30.294Z,7.90
2022-09-21T02:13:38.510Z,7.57
2022-09-21T02:15:53.270Z,10.32
2022-09-21T02:18:07.210Z,9.68
2022-09-21T02:20:31.305Z,12.70
2022-09-21T02:22:45.823Z,8.43
2022-09-21T02:25:05.316Z,9.55
2022-09-21T02:27:38.040Z,9.27
2022-09-21T02:30:06.419Z,10.07
2022-09-21T02:32:34.973Z,8.90
2022-09-21T02:34:51.105Z,7.82
2022-09-21T02:37:02.366Z,8.13
2022-09-21T02:39:12.062Z,7.68
2022-09-21T02:41:42.372Z,8.05
2022-09-21T02:43:59.890Z,8.98
2022-09-21T02:46:21.517Z,6.93
2022-09-21T02:48:36.215Z,8.98
2022-09-21T02:50:52.586Z,7.72
2022-09-21T02:53:05.317Z,9.07
2022-09-21T02:55:11.792Z,8.10
2022-09-21T02:57:24.130Z,6.45
2022-09-21T02:59:44.905Z,6.55
2022-09-21T03:01:51.231Z,9.27
2022-09-21T03:03:58.428Z,6.50
2022-09-21T03:06:06.432Z,6.90
2022-09-21T03:08:16.966Z,6.43
2022-09-21T03:10:26.636Z,9.43
2022-09-21T03:12:33.826Z,6.07
2022-09-21T03:14:54.411Z,7.47
2022-09-21T03:17:03.183Z,8.60
2022-09-21T03:19:16.627Z,7.05
2022-09-21T03:21:25.217Z,7.10
2022-09-21T03:23:32.866Z,6.90
2022-09-21T03:25:39.574Z,7.63
2022-09-21T03:27:44.922Z,4.75
2022-09-21T03:29:49.298Z,5.47
2022-09-21T03:31:57.067Z,5.47
2022-09-21T03:34:03.858Z,5.05
2022-09-21T03:36:09.265Z,4.10
2022-09-21T03:38:17.936Z,5.68
2022-09-21T03:40:25.262Z,6.75
2022-09-21T03:42:29.656Z,7.00
2022-09-21T03:44:38.204Z,6.57
2022-09-21T03:46:42.665Z,5.78
2022-09-21T03:48:49.738Z,5.72
2022-09-21T03:50:55.998Z,5.70
2022-09-21T03:53:01.788Z,4.20
2022-09-21T03:55:07.748Z,5.35
2022-09-21T03:57:14.916Z,4.68
2022-09-21T03:59:21.549Z,6.15
2022-09-21T04:01:27.036Z,4.07
2022-09-21T04:03:33.646Z,5.00
2022-09-21T04:05:47.135Z,5.57
2022-09-21T04:07:56.112Z,4.22
2022-09-21T04:10:04.433Z,4.80
2022-09-21T04:12:11.981Z,7.30
2022-09-21T04:14:19.739Z,12.07
2022-09-21T04:16:28.541Z,4.57
2022-09-21T04:18:49.364Z,5.38
2022-09-21T04:20:54.110Z,5.72
2022-09-21T04:22:59.564Z,4.75
2022-09-21T04:25:19.948Z,4.13
2022-09-21T04:27:30.779Z,7.13
2022-09-21T04:29:56.197Z,7.05
2022-09-21T04:32:03.495Z,4.32
2022-09-21T04:34:17.682Z,4.07
2022-09-21T04:36:23.568Z,5.55
2022-09-21T04:38:32.560Z,6.95
2022-09-21T04:40:38.013Z,5.07
2022-09-21T04:42:44.553Z,6.15
2022-09-21T04:44:51.642Z,5.95
2022-09-21T04:46:56.281Z,5.18
2022-09-21T04:49:04.055Z,7.22
2022-09-21T04:51:15.290Z,5.15
2022-09-21T04:53:19.978Z,5.35
2022-09-21T04:55:26.332Z,6.07
2022-09-21T04:57:43.620Z,5.30
2022-09-21T04:59:49.389Z,5.07
2022-09-21T05:01:59.375Z,5.38
2022-09-21T05:04:06.168Z,8.85
2022-09-21T05:06:12.701Z,5.82
2022-09-21T05:08:19.332Z,7.32
2022-09-21T05:10:30.055Z,5.03
2022-09-21T05:12:40.731Z,4.90
2022-09-21T05:14:48.251Z,7.13
2022-09-21T05:16:56.108Z,4.82
2022-09-21T05:19:00.631Z,5.13
2022-09-21T05:21:08.463Z,4.20
2022-09-21T05:23:16.902Z,6.20
2022-09-21T05:25:22.051Z,4.78
2022-09-21T05:27:28.031Z,8.40
2022-09-21T05:29:35.356Z,5.22
2022-09-21T05:31:44.018Z,8.00
2022-09-21T05:34:05.037Z,5.82
2022-09-21T05:36:41.791Z,7.30
2022-09-21T05:38:49.591Z,4.50
2022-09-21T05:40:55.994Z,5.07
2022-09-21T05:43:03.001Z,7.07
2022-09-21T05:45:08.348Z,3.80
2022-09-21T05:47:32.200Z,4.90
2022-09-21T05:49:57.295Z,4.55
2022-09-21T05:52:31.089Z,4.40
2022-09-21T05:54:45.605Z,5.80
2022-09-21T05:57:08.297Z,4.82
2022-09-21T05:59:37.489Z,4.18
2022-09-21T06:02:06.949Z,6.53
2022-09-21T06:04:16.655Z,5.18
2022-09-21T06:06:21.372Z,3.90
2022-09-21T06:08:28.101Z,4.13
2022-09-21T06:10:37.244Z,4.60
2022-09-21T06:12:42.347Z,7.07
2022-09-21T06:14:48.518Z,4.20
2022-09-21T06:16:56.335Z,4.88
2022-09-21T06:19:01.206Z,4.30
2022-09-21T06:21:08.305Z,5.40
2022-09-21T06:23:16.263Z,5.47
2022-09-21T06:25:23.327Z,4.72
2022-09-21T06:27:30.260Z,4.97
2022-09-21T06:29:40.963Z,5.68
2022-09-21T06:33:57.078Z,4.80
2022-09-21T06:36:01.766Z,5.88
2022-09-21T06:38:16.243Z,5.95
2022-09-21T06:40:27.790Z,4.68
2022-09-21T06:42:34.373Z,5.28
2022-09-21T06:44:38.636Z,4.75
2022-09-21T06:46:45.071Z,4.95
2022-09-21T06:48:51.742Z,6.90
2022-09-21T06:51:04.187Z,4.88
2022-09-21T06:53:09.034Z,4.28
2022-09-21T06:55:15.976Z,5.82
2022-09-21T06:57:20.191Z,6.47
2022-09-21T06:59:28.277Z,6.38
2022-09-21T07:01:35.052Z,6.50
2022-09-21T07:03:40.352Z,4.78
2022-09-21T07:05:47.520Z,6.32
2022-09-21T07:07:53.931Z,5.13
2022-09-21T07:10:09.062Z,5.35
2022-09-21T07:12:22.030Z,5.30
2022-09-21T07:14:26.749Z,4.00
2022-09-21T07:16:32.231Z,4.97
2022-09-21T07:18:43.577Z,7.32
2022-09-21T07:20:50.186Z,5.43
2022-09-21T07:22:54.561Z,4.85
2022-09-21T07:25:02.662Z,6.45
2022-09-21T07:27:07.932Z,3.75
2022-09-21T07:29:12.492Z,5.97
2022-09-21T07:31:19.013Z,8.30
2022-09-21T07:33:24.803Z,4.20
2022-09-21T07:35:29.737Z,4.00
2022-09-21T07:37:36.419Z,4.95
2022-09-21T07:39:41.919Z,11.13
2022-09-21T07:41:47.091Z,4.97
2022-09-21T07:43:54.317Z,4.38
2022-09-21T07:46:06.731Z,4.38
2022-09-21T07:48:16.102Z,4.60
2022-09-21T07:52:43.198Z,6.03
2022-09-21T07:55:07.911Z,4.82
2022-09-21T07:57:29.647Z,7.10
2022-09-21T07:59:46.600Z,5.43
2022-09-21T08:01:54.527Z,4.72
2022-09-21T08:04:06.172Z,5.50
2022-09-21T08:06:28.039Z,4.35
2022-09-21T08:08:38.130Z,4.25
2022-09-21T08:10:45.782Z,4.85
2022-09-21T08:12:52.601Z,5.65
2022-09-21T08:14:57.151Z,6.13
2022-09-21T08:17:05.239Z,6.55
2022-09-21T08:19:12.507Z,6.72
2022-09-21T08:21:16.914Z,5.20
2022-09-21T08:23:23.765Z,6.88
2022-09-21T08:25:29.235Z,4.15
2022-09-21T08:27:33.665Z,7.68
2022-09-21T08:29:41.088Z,7.57
2022-09-21T08:31:47.860Z,8.32
2022-09-21T08:33:52.737Z,13.43
2022-09-21T08:36:00.803Z,8.40
2022-09-21T08:38:06.956Z,12.32
2022-09-21T08:40:13.408Z,6.53
2022-09-21T08:42:26.437Z,9.45
2022-09-21T08:44:44.792Z,11.57
2022-09-21T08:46:59.829Z,6.30
2022-09-21T08:49:26.455Z,6.75
2022-09-21T08:51:33.701Z,5.60
2022-09-21T08:53:45.658Z,4.25
2022-09-21T08:55:53.349Z,6.30
2022-09-21T08:58:00.060Z,4.32
2022-09-21T09:00:06.162Z,5.03
2022-09-21T09:02:33.571Z,8.82
2022-09-21T09:05:02.372Z,8.00
2022-09-21T09:07:41.965Z,6.65
2022-09-21T09:10:00.927Z,8.90
2022-09-21T09:12:11.227Z,9.05
2022-09-21T09:14:28.391Z,12.30
2022-09-21T09:16:58.446Z,17.65
2022-09-21T09:19:27.933Z,17.25
2022-09-21T09:21:44.754Z,14.13
2022-09-21T09:24:05.585Z,11.85
2022-09-21T09:26:21.345Z,12.23
2022-09-21T09:28:30.680Z,12.30
2022-09-21T09:30:36.012Z,8.50
2022-09-21T09:32:58.624Z,6.18
2022-09-21T09:35:26.099Z,7.03
2022-09-21T09:37:34.610Z,10.23
2022-09-21T09:39:42.581Z,7.18
2022-09-21T09:42:11.817Z,12.15
2022-09-21T09:44:42.932Z,9.95
2022-09-21T09:47:14.666Z,6.07
2022-09-21T09:49:31.584Z,5.10
2022-09-21T09:51:38.676Z,4.43
2022-09-21T09:53:47.723Z,5.07
2022-09-21T09:55:53.512Z,4.88
2022-09-21T09:57:58.154Z,5.50
2022-09-21T10:00:11.935Z,7.60
2022-09-21T10:02:23.528Z,6.65
2022-09-21T10:04:33.692Z,5.38
2022-09-21T10:06:43.813Z,5.90
2022-09-21T10:08:50.530Z,7.47
2022-09-21T10:10:55.345Z,7.13
2022-09-21T10:13:16.250Z,7.30
2022-09-21T10:15:35.778Z,5.78
2022-09-21T10:17:44.089Z,9.82
2022-09-21T10:20:18.190Z,4.53
2022-09-21T10:22:28.027Z,6.75
2022-09-21T10:24:34.627Z,6.65
2022-09-21T10:26:51.784Z,6.63
2022-09-21T10:29:01.914Z,9.65
2022-09-21T10:31:20.151Z,11.73
2022-09-21T10:33:29.883Z,11.55
2022-09-21T10:35:36.117Z,41.85
2022-09-21T10:37:42.487Z,23.25
2022-09-21T10:39:52.919Z,14.45
2022-09-21T10:42:15.730Z,13.93
2022-09-21T10:44:21.904Z,10.32
2022-09-21T10:46:38.110Z,8.93
2022-09-21T10:48:48.812Z,7.88
2022-09-21T10:50:56.155Z,8.15
2022-09-21T10:53:21.230Z,11.00
2022-09-21T10:55:27.104Z,7.10
2022-09-21T10:57:33.661Z,9.00
2022-09-21T10:59:42.434Z,8.77
2022-09-21T11:01:48.271Z,7.65
2022-09-21T11:04:04.626Z,9.80
2022-09-21T11:06:36.935Z,10.18
2022-09-21T11:08:48.396Z,8.05
2022-09-21T11:11:05.940Z,9.02
2022-09-21T11:13:27.090Z,10.55
2022-09-21T11:15:45.571Z,8.35
2022-09-21T11:18:00.872Z,10.05
2022-09-21T11:20:13.121Z,8.40
2022-09-21T11:22:36.481Z,8.95
2022-09-21T11:24:58.837Z,10.07
2022-09-21T11:27:22.052Z,12.75
2022-09-21T11:30:08.324Z,12.80
2022-09-21T11:32:49.673Z,11.68
2022-09-21T11:35:12.386Z,14.40
2022-09-21T11:37:29.020Z,14.30
2022-09-21T11:40:25.185Z,9.68
2022-09-21T11:43:02.791Z,12.05
2022-09-21T11:45:34.947Z,15.23
2022-09-21T11:47:57.621Z,17.52
2022-09-21T11:50:30.561Z,17.58
2022-09-21T11:53:08.615Z,15.35
2022-09-21T11:55:37.519Z,16.67
2022-09-21T11:57:55.152Z,16.42
2022-09-21T12:00:18.410Z,14.45
2022-09-21T12:02:37.578Z,15.27
2022-09-21T12:05:23.917Z,15.10
2022-09-21T12:07:45.585Z,12.98
2022-09-21T12:09:57.946Z,14.80
2022-09-21T12:12:04.667Z,13.52
2022-09-21T12:14:18.615Z,18.67
2022-09-21T12:16:36.159Z,11.55
2022-09-21T12:18:58.039Z,12.85
2022-09-21T12:21:12.681Z,12.70
2022-09-21T12:23:27.848Z,19.42
2022-09-21T12:25:43.680Z,13.25
2022-09-21T12:27:53.223Z,12.02
2022-09-21T12:30:04.025Z,12.43
2022-09-21T12:32:33.237Z,13.18
2022-09-21T12:34:51.502Z,12.38
2022-09-21T12:37:09.685Z,19.48
2022-09-21T12:39:22.168Z,13.13
2022-09-21T12:41:47.931Z,14.98
2022-09-21T12:44:17.186Z,13.90
2022-09-21T12:46:28.604Z,13.10
2022-09-21T12:48:53.881Z,12.98
2022-09-21T12:51:14.713Z,11.80
2022-09-21T12:53:27.079Z,11.23
2022-09-21T12:56:06.506Z,11.52
2022-09-21T12:58:26.295Z,9.85
2022-09-21T13:00:39.314Z,9.57
2022-09-21T13:02:59.903Z,9.50
2022-09-21T13:05:27.068Z,7.38
2022-09-21T13:07:59.962Z,8.20
2022-09-21T13:10:24.543Z,7.15
2022-09-21T13:12:35.777Z,8.80
2022-09-21T13:14:47.200Z,9.23
2022-09-21T13:17:03.907Z,6.82
2022-09-21T13:19:15.010Z,8.00
2022-09-21T13:21:23.539Z,6.25
2022-09-21T13:23:40.686Z,6.35
2022-09-21T13:25:49.903Z,6.00
2022-09-21T13:28:16.880Z,4.95
2022-09-21T13:30:42.585Z,5.63
2022-09-21T13:32:55.213Z,6.03
2022-09-21T13:35:22.179Z,5.82
2022-09-21T13:37:32.869Z,7.85
2022-09-21T13:39:37.095Z,10.48
2022-09-21T13:44:35.972Z,14.43
2022-09-21T13:46:44.013Z,15.07
2022-09-21T13:48:49.854Z,9.88
2022-09-21T13:51:00.586Z,12.90
2022-09-21T13:53:11.360Z,14.48
2022-09-21T13:55:37.165Z,14.60
2022-09-21T13:57:51.546Z,15.32
2022-09-21T14:00:14.876Z,11.52
2022-09-21T14:02:36.080Z,8.82
2022-09-21T14:04:42.458Z,9.15
2022-09-21T14:06:48.869Z,11.57
2022-09-21T14:08:57.901Z,9.75
2022-09-21T14:11:09.139Z,9.50
2022-09-21T14:13:33.041Z,10.88
2022-09-21T14:15:40.470Z,11.77
2022-09-21T14:17:45.076Z,12.40
2022-09-21T14:19:56.590Z,10.40
2022-09-21T14:22:10.508Z,9.57
2022-09-21T14:24:23.925Z,10.32
2022-09-21T14:26:35.683Z,13.15
2022-09-21T14:28:51.171Z,10.50
2022-09-21T14:31:01.926Z,11.32
2022-09-21T14:33:24.254Z,10.60
2022-09-21T14:35:36.622Z,14.82
2022-09-21T14:37:44.353Z,12.07
2022-09-21T14:39:49.273Z,14.05
2022-09-21T14:41:58.588Z,14.13
2022-09-21T14:44:05.416Z,11.75
2022-09-21T14:46:23.297Z,9.07
2022-09-21T14:48:42.335Z,8.85
2022-09-21T14:51:15.901Z,10.75
2022-09-21T14:53:20.791Z,11.18
2022-09-21T14:55:50.021Z,9.95
2022-09-21T14:58:23.165Z,9.63
2022-09-21T15:00:42.141Z,10.75
2022-09-21T15:03:05.935Z,7.85
2022-09-21T15:05:12.125Z,8.10
2022-09-21T15:07:48.043Z,9.23
2022-09-21T15:10:31.214Z,7.05
2022-09-21T15:13:00.813Z,7.28
2022-09-21T15:15:34.621Z,7.60
2022-09-21T15:17:40.058Z,9.85
2022-09-21T15:19:45.055Z,7.35
2022-09-21T15:21:55.492Z,7.70
2022-09-21T15:24:01.254Z,7.00
2022-09-21T15:26:10.971Z,8.10
2022-09-21T15:28:21.402Z,6.03
2022-09-21T15:30:31.101Z,6.25
2022-09-21T15:32:43.554Z,6.93
2022-09-21T15:35:01.942Z,5.30
2022-09-21T15:37:14.029Z,4.97
2022-09-21T15:39:27.638Z,4.88
2022-09-21T15:41:45.051Z,7.28
2022-09-21T15:43:51.123Z,5.75
2022-09-21T15:46:03.048Z,4.25
2022-09-21T15:48:15.780Z,7.40
2022-09-21T15:50:22.423Z,8.43
2022-09-21T15:52:35.748Z,4.50
2022-09-21T15:54:46.461Z,9.68
2022-09-21T15:56:51.041Z,6.40
2022-09-21T15:59:10.010Z,4.38
2022-09-21T16:01:22.526Z,4.93
2022-09-21T16:03:30.781Z,7.10
2022-09-21T16:05:46.194Z,9.00
2022-09-21T16:07:52.904Z,5.55
2022-09-21T16:09:57.933Z,4.95
2022-09-21T16:12:02.309Z,6.15
2022-09-21T16:14:27.472Z,6.50
2022-09-21T16:16:32.315Z,5.90
2022-09-21T16:18:52.805Z,6.65
2022-09-21T16:21:02.526Z,7.55
2022-09-21T16:23:12.653Z,5.85
2022-09-21T16:25:38.668Z,6.55
2022-09-21T16:27:52.315Z,5.72
2022-09-21T16:29:58.339Z,4.88
2022-09-21T16:32:24.364Z,5.25
2022-09-21T16:34:38.544Z,7.63
2022-09-21T16:36:43.511Z,5.27
2022-09-21T16:38:51.438Z,7.60
2022-09-21T16:41:00.150Z,7.25
2022-09-21T16:43:06.347Z,6.57
2022-09-21T16:45:14.624Z,6.43
2022-09-21T16:47:31.217Z,6.55
2022-09-21T16:49:36.617Z,5.78
2022-09-21T16:51:43.463Z,5.93
2022-09-21T16:53:52.411Z,7.45
2022-09-21T16:55:56.814Z,9.05
2022-09-21T16:58:01.563Z,7.90
2022-09-21T17:00:11.915Z,6.32
2022-09-21T17:04:24.234Z,7.57
2022-09-21T17:06:29.595Z,8.40
2022-09-21T17:08:35.067Z,8.35
2022-09-21T17:10:49.917Z,8.63
2022-09-21T17:12:56.966Z,9.10
2022-09-21T17:15:01.872Z,9.70
2022-09-21T17:17:12.497Z,6.70
2022-09-21T17:19:22.089Z,8.40
2022-09-21T17:21:26.344Z,11.65
2022-09-21T17:23:31.967Z,15.95
2022-09-21T17:25:40.697Z,8.80
2022-09-21T17:27:47.159Z,7.57
2022-09-21T17:29:51.939Z,8.15
2022-09-21T17:32:00.816Z,10.63
2022-09-21T17:34:13.488Z,9.15
2022-09-21T17:36:19.129Z,8.83
2022-09-21T17:38:25.912Z,6.93
2022-09-21T17:40:33.612Z,7.53
2022-09-21T17:42:41.125Z,9.38
2022-09-21T17:44:48.578Z,10.13
2022-09-21T17:47:14.674Z,8.27
2022-09-21T17:49:19.909Z,6.93
2022-09-21T17:51:38.959Z,8.85
2022-09-21T17:53:45.780Z,10.18
2022-09-21T17:55:55.530Z,8.98
2022-09-21T17:58:27.685Z,9.13
2022-09-21T18:00:39.883Z,8.95
2022-09-21T18:02:45.341Z,9.95
2022-09-21T18:04:57.432Z,10.20
2022-09-21T18:07:07.673Z,7.03
2022-09-21T18:09:14.823Z,10.65
2022-09-21T18:11:41.543Z,9.05
2022-09-21T18:14:06.924Z,11.15
2022-09-21T18:16:25.064Z,10.18
2022-09-21T18:18:59.086Z,9.88
2022-09-21T18:21:14.381Z,13.77
2022-09-21T18:23:32.911Z,9.77
2022-09-21T18:25:50.702Z,12.00
2022-09-21T18:28:08.037Z,10.70
2022-09-21T18:30:27.300Z,10.98
2022-09-21T18:35:20.316Z,7.65
2022-09-21T18:37:39.105Z,6.82
2022-09-21T18:40:23.946Z,10.10
2022-09-21T18:42:40.550Z,10.55
2022-09-21T18:44:50.441Z,10.00
2022-09-21T18:47:03.049Z,9.80
2022-09-21T18:51:45.697Z,9.25
2022-09-21T18:53:58.928Z,10.60
2022-09-21T18:56:03.622Z,10.52
2022-09-21T18:58:08.230Z,7.95
2022-09-21T19:00:20.326Z,8.32
2022-09-21T19:02:27.176Z,7.93
2022-09-21T19:04:31.876Z,10.85
2022-09-21T19:07:02.184Z,6.78
2022-09-21T19:09:30.899Z,13.35
2022-09-21T19:11:53.396Z,6.93
2022-09-21T19:14:22.999Z,8.18
2022-09-21T19:16:46.679Z,8.55
2022-09-21T19:19:28.277Z,7.45
2022-09-21T19:21:42.297Z,8.60
2022-09-21T19:23:46.849Z,13.45
2022-09-21T19:25:56.546Z,8.07
2022-09-21T19:28:05.576Z,8.27
2022-09-21T19:30:15.397Z,7.55
2022-09-21T19:32:43.504Z,8.15
2022-09-21T19:34:48.598Z,9.98
2022-09-21T19:36:53.200Z,6.97
2022-09-21T19:39:02.001Z,14.77
2022-09-21T19:41:19.895Z,9.77
2022-09-21T19:43:33.335Z,10.63
2022-09-21T19:45:50.571Z,13.55
2022-09-21T19:47:56.586Z,10.02
2022-09-21T19:50:14.332Z,9.68
2022-09-21T19:52:21.109Z,10.80
2022-09-21T19:54:39.886Z,14.30
2022-09-21T19:57:02.364Z,12.80
2022-09-21T19:59:24.141Z,11.02
2022-09-21T20:01:29.828Z,13.02
2022-09-21T20:03:40.419Z,12.10
2022-09-21T20:05:52.483Z,12.32
2022-09-21T20:08:00.663Z,10.80
2022-09-21T20:10:31.488Z,10.30
2022-09-21T20:12:47.052Z,19.73
2022-09-21T20:14:58.779Z,12.60
2022-09-21T20:17:09.597Z,13.43
2022-09-21T20:19:29.485Z,13.32
2022-09-21T20:21:41.273Z,12.02
2022-09-21T20:23:56.635Z,15.02
2022-09-21T20:26:09.014Z,11.60
2022-09-21T20:28:16.115Z,10.90
2022-09-21T20:30:33.686Z,14.73
2022-09-21T20:32:44.652Z,12.45
2022-09-21T20:34:51.288Z,10.15
2022-09-21T20:37:02.274Z,16.65
2022-09-21T20:39:13.375Z,12.10
2022-09-21T20:41:20.401Z,11.40
2022-09-21T20:43:32.576Z,14.60
2022-09-21T20:45:42.915Z,13.80
2022-09-21T20:47:51.637Z,13.80
2022-09-21T20:50:00.792Z,12.23
2022-09-21T20:52:12.388Z,12.25
2022-09-21T20:54:18.257Z,10.65
2022-09-21T20:56:22.724Z,11.48
2022-09-21T20:58:32.390Z,10.68
2022-09-21T21:00:37.728Z,10.30
2022-09-21T21:02:43.607Z,9.98
2022-09-21T21:04:52.329Z,11.13
2022-09-21T21:06:59.473Z,11.02
2022-09-21T21:09:04.022Z,9.98
2022-09-21T21:11:13.977Z,10.55
2022-09-21T21:13:20.306Z,11.20
2022-09-21T21:15:25.354Z,11.75
2022-09-21T21:17:34.708Z,12.18
2022-09-21T21:19:39.318Z,10.15
2022-09-21T21:21:45.064Z,9.30
2022-09-21T21:24:06.961Z,10.65
2022-09-21T21:26:12.156Z,15.10
2022-09-21T21:28:19.238Z,8.25
2022-09-21T21:30:27.453Z,11.20
2022-09-21T21:32:33.593Z,8.10
2022-09-21T21:34:41.484Z,8.85
2022-09-21T21:36:48.486Z,10.60
2022-09-21T21:38:53.160Z,12.15
2022-09-21T21:41:00.289Z,10.10
2022-09-21T21:43:07.317Z,9.43
2022-09-21T21:45:12.539Z,11.10
2022-09-21T21:49:46.877Z,39.00
2022-09-21T21:51:52.221Z,22.45
2022-09-21T21:53:59.706Z,32.20
2022-09-21T21:56:07.169Z,15.80
2022-09-21T21:58:14.309Z,14.27
2022-09-21T22:00:21.597Z,9.23
2022-09-21T22:02:32.691Z,10.45
2022-09-21T22:04:37.380Z,10.77
2022-09-21T22:06:44.350Z,9.18
2022-09-21T22:08:52.653Z,14.68
2022-09-21T22:10:57.404Z,14.50
2022-09-21T22:13:04.666Z,10.68
2022-09-21T22:15:12.279Z,10.57
2022-09-21T22:17:20.248Z,13.30
2022-09-21T22:19:28.536Z,11.38
2022-09-21T22:21:36.308Z,10.82
2022-09-21T22:23:41.107Z,11.75
2022-09-21T22:25:49.525Z,9.50
2022-09-21T22:28:10.854Z,12.35
2022-09-21T22:30:15.629Z,10.57
2022-09-21T22:32:25.581Z,9.07
2022-09-21T22:34:43.654Z,11.20
2022-09-21T22:36:52.036Z,8.10
2022-09-21T22:38:59.130Z,11.80
2022-09-21T22:41:13.293Z,16.05
2022-09-21T22:43:21.041Z,14.18
2022-09-21T22:45:39.942Z,11.40
2022-09-21T22:48:06.104Z,11.07
2022-09-21T22:50:13.885Z,10.20
2022-09-21T22:52:26.396Z,10.40
2022-09-21T22:54:33.350Z,8.65
2022-09-21T22:56:40.419Z,8.60
2022-09-21T22:58:51.029Z,8.90
2022-09-21T23:01:09.456Z,8.48
2022-09-21T23:03:23.085Z,10.98
2022-09-21T23:05:30.086Z,13.82
2022-09-21T23:07:41.095Z,9.63
2022-09-21T23:09:52.359Z,8.65
2022-09-21T23:11:59.044Z,11.77
2022-09-21T23:14:05.894Z,12.13
2022-09-21T23:16:14.931Z,17.35
2022-09-21T23:18:21.126Z,11.18
2022-09-21T23:20:34.356Z,11.25
2022-09-21T23:22:39.820Z,16.48
2022-09-21T23:24:46.680Z,12.00
2022-09-21T23:26:54.326Z,13.20
2022-09-21T23:29:03.856Z,11.45
2022-09-21T23:31:14.109Z,10.65
2022-09-21T23:33:24.026Z,10.38
2022-09-21T23:35:30.077Z,8.65
2022-09-21T23:37:54.247Z,9.32
2022-09-21T23:40:07.744Z,11.18
2022-09-21T23:42:17.554Z,10.00
2022-09-21T23:44:41.788Z,9.82
2022-09-21T23:46:50.609Z,6.93
2022-09-21T23:49:00.779Z,15.70
2022-09-21T23:51:25.299Z,9.23
2022-09-21T23:53:37.941Z,8.60
2022-09-21T23:55:51.287Z,9.07
2022-09-21T23:58:02.382Z,11.15
